地図

経路データ

SID SEASON NUMBER BASIN SUBBASIN NAME ISO_TIME NATURE LAT LON WMO_WIND WMO_PRES WMO_AGENCY TRACK_TYPE DIST2LAND LANDFALL IFLAG USA_AGENCY USA_ATCF_ID USA_LAT USA_LON USA_RECORD USA_STATUS USA_WIND USA_PRES USA_SSHS USA_R34_NE USA_R34_SE USA_R34_SW USA_R34_NW USA_R50_NE USA_R50_SE USA_R50_SW USA_R50_NW USA_R64_NE USA_R64_SE USA_R64_SW USA_R64_NW USA_POCI USA_ROCI USA_RMW USA_EYE TOKYO_LAT TOKYO_LON TOKYO_GRADE TOKYO_WIND TOKYO_PRES TOKYO_R50_DIR TOKYO_R50_LONG TOKYO_R50_SHORT TOKYO_R30_DIR TOKYO_R30_LONG TOKYO_R30_SHORT TOKYO_LAND CMA_LAT CMA_LON CMA_CAT CMA_WIND CMA_PRES HKO_LAT HKO_LON HKO_CAT HKO_WIND HKO_PRES NEWDELHI_LAT NEWDELHI_LON NEWDELHI_GRADE NEWDELHI_WIND NEWDELHI_PRES NEWDELHI_CI NEWDELHI_DP NEWDELHI_POCI REUNION_LAT REUNION_LON REUNION_TYPE REUNION_WIND REUNION_PRES REUNION_TNUM REUNION_CI REUNION_RMW REUNION_R34_NE REUNION_R34_SE REUNION_R34_SW REUNION_R34_NW REUNION_R50_NE REUNION_R50_SE REUNION_R50_SW REUNION_R50_NW REUNION_R64_NE REUNION_R64_SE REUNION_R64_SW REUNION_R64_NW BOM_LAT BOM_LON BOM_TYPE BOM_WIND BOM_PRES BOM_TNUM BOM_CI BOM_RMW BOM_R34_NE BOM_R34_SE BOM_R34_SW BOM_R34_NW BOM_R50_NE BOM_R50_SE BOM_R50_SW BOM_R50_NW BOM_R64_NE BOM_R64_SE BOM_R64_SW BOM_R64_NW BOM_ROCI BOM_POCI BOM_EYE BOM_POS_METHOD BOM_PRES_METHOD NADI_LAT NADI_LON NADI_CAT NADI_WIND NADI_PRES WELLINGTON_LAT WELLINGTON_LON WELLINGTON_WIND WELLINGTON_PRES DS824_LAT DS824_LON DS824_STAGE DS824_WIND DS824_PRES TD9636_LAT TD9636_LON TD9636_STAGE TD9636_WIND TD9636_PRES TD9635_LAT TD9635_LON TD9635_WIND TD9635_PRES TD9635_ROCI NEUMANN_LAT NEUMANN_LON NEUMANN_CLASS NEUMANN_WIND NEUMANN_PRES MLC_LAT MLC_LON MLC_CLASS MLC_WIND MLC_PRES USA_GUST BOM_GUST BOM_GUST_PER REUNION_GUST REUNION_GUST_PER USA_SEAHGT USA_SEARAD_NE USA_SEARAD_SE USA_SEARAD_SW USA_SEARAD_NW STORM_SPEED STORM_DIR
1971020S11094 1971 7 SI WA POLLY 1971-01-20 00:00:00 NR -11.0000 93.5000 998 bom main 1200 1200 ______O_______ -1 -11.0000 93.5000 998 4 270
1971020S11094 1971 7 SI WA POLLY 1971-01-20 03:00:00 NR -11.0000 93.3000 998 bom main 1211 1211 ______O_______ -1 -11.0000 93.3000 998 3 270
1971020S11094 1971 7 SI WA POLLY 1971-01-20 06:00:00 TS -11.0000 93.2000 998 bom main 1217 1217 ______O__O____ -1 -11.0000 93.1000 998 -11.0000 93.5000 TC 35 998 3 270
1971020S11094 1971 7 SI WA POLLY 1971-01-20 09:00:00 TS -11.0000 93.0342 998 bom main 1229 1229 ______O__P____ -1 -11.0000 92.9000 998 -11.0000 93.3025 TC 35 998 3 270
1971020S11094 1971 7 SI WA POLLY 1971-01-20 12:00:00 TS -11.0000 92.8714 998 bom main 1235 1235 ______O__O____ -1 -11.0000 92.7000 998 -11.0000 93.1000 TC 35 998 3 270
1971020S11094 1971 7 SI WA POLLY 1971-01-20 15:00:00 TS -11.0000 92.7463 998 bom main 1247 1247 ______O__P____ -1 -11.0000 92.6000 998 -11.0000 92.8925 TC 35 998 3 270
1971020S11094 1971 7 SI WA POLLY 1971-01-20 18:00:00 TS -11.0000 92.5500 998 bom main 1253 1253 ______O__O____ -1 -11.0000 92.4000 998 -11.0000 92.7000 TC 35 998 4 270
1971020S11094 1971 7 SI WA POLLY 1971-01-20 21:00:00 TS -11.0000 92.3750 998 bom main 1265 1265 ______O__P____ -1 -11.0000 92.2000 998 -11.0000 92.5500 TC 35 998 3 270
1971020S11094 1971 7 SI WA POLLY 1971-01-21 00:00:00 TS -11.0000 92.2000 998 bom main 1278 1278 ______O__O____ -1 -11.0000 92.0000 998 -11.0000 92.4000 TC 35 998 4 270
1971020S11094 1971 7 SI WA POLLY 1971-01-21 03:00:00 TS -11.0000 92.0038 998 bom main 1291 1291 ______O__P____ -1 -11.0000 91.8000 998 -11.0000 92.2075 TC 35 998 5 198
1971020S11094 1971 7 SI WA POLLY 1971-01-21 06:00:00 TS -11.4636 92.0455 998 bom main 1336 1336 O_____O__OO___ jtwc_sh SH101971 -12.7000 92.7000 -1 -11.0000 91.6000 998 -11.0000 92.0000 TC 35 998 -12.7000 92.7000 1 7 0
1971020S11094 1971 7 SI WA POLLY 1971-01-21 09:00:00 TS -11.7067 91.9857 997 bom main 1354 1354 P_____O__PP___ SH101971 -12.6625 92.5000 -1 -11.0000 91.4000 997 -11.0000 91.8000 TC 35 998 -12.6221 92.4999 1 4 203
1971020S11094 1971 7 SI WA POLLY 1971-01-21 12:00:00 TS -11.8374 91.8764 997 bom main 1370 1370 O_____O__OP___ jtwc_sh SH101971 -12.6000 92.3000 -1 -11.0000 91.2000 997 -11.0000 91.6000 TC 35 998 -12.5453 92.2998 1 3 232
1971020S11094 1971 7 SI WA POLLY 1971-01-21 15:00:00 TS -11.8942 91.7400 997 bom main 1391 1391 P_____O__PP___ SH101971 -12.5000 92.1000 -1 -11.0000 91.0000 997 -11.0000 91.4000 TC 35 997 -12.4708 92.0999 1 3 261
1971020S11094 1971 7 SI WA POLLY 1971-01-21 18:00:00 TS -11.8842 91.5790 996 bom main 1398 1398 O_____O__OO___ jtwc_sh SH101971 -12.4000 91.9000 -1 -11.0000 90.8000 996 -11.0000 91.2000 TC 35 997 -12.4000 91.9000 1 3 270
1971020S11094 1971 7 SI WA POLLY 1971-01-21 21:00:00 TS -11.8962 91.4377 996 bom main 1411 1411 P_____O__PP___ SH101971 -12.3499 91.7151 -1 -11.0000 90.7000 996 -11.0000 90.9925 TC 35 996 -12.3329 91.6970 1 3 265
1971020S11094 1971 7 SI WA POLLY 1971-01-22 00:00:00 TS -11.9093 91.2706 996 bom main 1417 1417 O_____O__OP___ jtwc_sh SH101971 -12.3000 91.5000 -1 -11.0000 90.5000 996 -11.0000 90.8000 TC 35 996 -12.2646 91.4752 1 3 269
1971020S11094 1971 7 SI WA POLLY 1971-01-22 03:00:00 TS -11.9046 91.1021 995 bom main 1430 1430 P________PP___ SH101971 -12.2150 91.2300 -1 -10.9997 90.7325 TC 35 996 -12.1890 91.2158 1 5 280
1971020S11094 1971 7 SI WA POLLY 1971-01-22 06:00:00 TS -11.8250 90.8000 994 bom main 1442 1442 O________OO___ jtwc_sh SH101971 -12.1000 90.9000 -1 -11.0000 90.5000 TC 35 996 -12.1000 90.9000 1 8 285
1971020S11094 1971 7 SI WA POLLY 1971-01-22 09:00:00 TS -11.7114 90.3558 993 bom main 1461 1461 P________PP___ SH101971 -11.9499 90.5300 -1 -10.9928 89.8399 TC 37 995 -11.9528 90.5232 1 10 283
1971020S11094 1971 7 SI MM POLLY 1971-01-22 12:00:00 TS -11.5993 89.8223 992 bom main 1496 1496 O________OP___ jtwc_sh SH101971 -11.8000 90.1000 -1 -11.0000 89.0000 TC 40 994 -11.7974 90.0891 1 11 281
1971020S11094 1971 7 SI MM POLLY 1971-01-22 15:00:00 TS -11.5108 89.2707 992 bom main 1526 1526 P________PP___ SH101971 -11.6699 89.6299 -1 -11.0351 88.2125 TC 42 993 -11.6683 89.6106 1 11 276
1971020S11094 1971 7 SI MM POLLY 1971-01-22 18:00:00 TS -11.4750 88.7000 990 bom main 1572 1572 O________OO___ jtwc_sh SH101971 -11.6000 89.1000 -1 -11.1000 87.5000 TC 45 992 -11.6000 89.1000 1 11 270
1971020S11094 1971 7 SI MM POLLY 1971-01-22 21:00:00 TS -11.5026 88.1232 990 bom main 1621 1621 P________PP___ SH101971 -11.6126 88.5000 -1 -11.1697 86.9624 TC 45 991 -11.6155 88.5305 1 11 264
1971020S11094 1971 7 SI MM POLLY 1971-01-23 00:00:00 TS -11.5989 87.5601 990 bom main 1669 1669 O________OP___ jtwc_sh SH101971 -11.7000 87.9000 -1 -11.3000 86.5000 TC 45 990 -11.6957 87.9406 1 11 257
1971020S11094 1971 7 SI MM POLLY 1971-01-23 03:00:00 TS -11.7527 87.0002 989 bom main 1733 1733 P________PP___ SH101971 -11.8275 87.3550 -1 -11.5277 85.9103 TC 45 990 -11.8280 87.3803 1 11 250
1971020S11094 1971 7 SI MM POLLY 1971-01-23 06:00:00 TS -11.9500 86.5500 988 bom main 1774 1782 O________OO___ jtwc_sh SH101971 -12.0000 86.9000 -1 -11.8000 85.5000 TC 45 990 -12.0000 86.9000 1 8 240
1971020S11094 1971 7 SI MM POLLY 1971-01-23 09:00:00 TS -12.1452 86.2947 987 bom main 1813 1813 P________PP___ SH101971 -12.1849 86.5549 -1 -12.0349 85.5173 TC 47 989 -12.1763 86.5515 1 6 223
1971020S11094 1971 7 SI MM POLLY 1971-01-23 12:00:00 TS -12.3723 86.1468 987 bom main 1851 1851 O________OP___ jtwc_sh SH101971 -12.4000 86.3000 -1 -12.3000 85.7000 TC 50 988 -12.3893 86.2874 1 6 210
1971020S11094 1971 7 SI MM POLLY 1971-01-23 15:00:00 TS -12.6382 86.0036 986 bom main 1874 1874 P________PP___ SH101971 -12.6499 86.0850 -1 -12.6200 85.7650 TC 50 987 -12.6327 86.0796 1 6 206
1971020S11094 1971 7 SI MM POLLY 1971-01-23 18:00:00 TS -12.9250 85.8750 986 bom main 1904 1904 O________OO___ jtwc_sh SH101971 -12.9000 85.9000 -1 -13.0000 85.8000 TC 50 987 -12.9000 85.9000 1 6 208
1971020S11094 1971 7 SI MM POLLY 1971-01-23 21:00:00 TS -13.1749 85.7128 985 bom main 1942 1942 P________PP___ SH101971 -13.0775 85.6924 -1 -13.4350 85.8075 TC 50 986 -13.1095 85.6590 1 6 210
1971020S11094 1971 7 SI MM POLLY 1971-01-24 00:00:00 TS -13.4625 85.5614 985 bom main 1972 1972 O________OP___ jtwc_sh SH101971 -13.3000 85.5000 -1 -13.9000 85.8000 TC 50 986 -13.3501 85.4456 1 7 204
1971020S11094 1971 7 SI MM POLLY 1971-01-24 03:00:00 TS -13.8164 85.4237 984 bom main 2011 2011 P________PP___ SH101971 -13.6250 85.3052 -1 -14.3500 85.8000 TC 52 985 -13.6657 85.2843 1 8 194
1971020S11094 1971 7 SI MM POLLY 1971-01-24 06:00:00 TS -14.2750 85.3500 984 bom main 2048 2048 O________OO___ jtwc_sh SH101971 -14.1000 85.2000 -1 -14.8000 85.8000 TC 55 985 -14.1000 85.2000 1 10 181
1971020S11094 1971 7 SI MM POLLY 1971-01-24 09:00:00 TS -14.8312 85.4087 983 bom main 2086 2086 P________PP___ SH101971 -14.7475 85.2623 -1 -15.2485 85.7970 TC 55 984 -14.7014 85.4137 1 13 172
1971020S11094 1971 7 SI MM POLLY 1971-01-24 12:00:00 TS -15.5056 85.5356 983 bom main 2133 2133 O________OP___ jtwc_sh SH101971 -15.5000 85.4000 -1 -15.7000 85.8000 TC 55 984 -15.4196 85.6748 1 14 168
1971020S11094 1971 7 SI MM POLLY 1971-01-24 15:00:00 TS -16.2371 85.7234 982 bom main 2175 2175 P________PP___ SH101971 -16.2492 85.6705 -1 -16.1827 85.8232 TC -16.2028 85.7992 1 15 178
1971020S11094 1971 7 SI MM POLLY 1971-01-24 18:00:00 TS -17.0000 85.6000 982 bom main 2248 2248 O________PO___ jtwc_sh SH101971 -17.0000 85.6000 -1 -16.6896 85.8649 TC -17.0000 85.6000 1 18 213
1971020S11094 1971 7 SI MM POLLY 1971-01-24 21:00:00 TS -17.7254 84.7075 981 bom main 2370 2370 P________PP___ SH101971 -17.7007 84.7455 -1 -17.2159 85.9234 TC -17.7747 84.6317 1 25 235
1971020S11094 1971 7 SI MM POLLY 1971-01-25 00:00:00 TS -18.4463 83.4503 980 bom main 2514 2514 O________PP___ jtwc_sh SH101971 -18.4000 83.5000 -1 -17.7572 85.9970 TC -18.5389 83.3510 1 29 239
1971020S11094 1971 7 SI MM POLLY 1971-01-25 03:00:00 TS -19.2017 82.1341 982 bom main 2543 2431 P________PP___ SH101971 -19.1742 82.1670 -1 -18.3086 86.0840 TC -19.2567 82.0682 1 27 237
1971020S11094 1971 7 SI MM POLLY 1971-01-25 06:00:00 TS -19.9000 81.1000 984 bom main 2431 2385 O________PO___ jtwc_sh SH101971 -19.9000 81.1000 -1 -18.8656 86.1826 TC -19.9000 81.1000 1 19 227
1971020S11094 1971 7 SI MM POLLY 1971-01-25 09:00:00 TS -20.4759 80.6953 986 bom main 2384 2382 P________PP___ SH101971 -20.5008 80.7012 -1 -19.4233 86.2910 TC -20.4259 80.6836 1 11 197
1971020S11094 1971 7 SI MM POLLY 1971-01-25 12:00:00 TS -20.9633 80.7505 989 bom main 2392 2391 O________PP___ jtwc_sh SH101971 -21.0000 80.8000 -1 -19.9771 86.4075 TC -20.8899 80.6516 1 9 163
1971020S11094 1971 7 SI MM POLLY 1971-01-25 15:00:00 TS -21.3767 80.9957 992 bom main 2411 2411 P________PP___ SH101971 -21.3977 80.9967 -1 -20.5222 86.5302 TC -21.3346 80.9936 1 12 133
1971020S11094 1971 7 SI MM POLLY 1971-01-25 18:00:00 TS -21.8000 81.7000 995 bom main 2482 2482 O________PO___ jtwc_sh SH101971 -21.8000 81.7000 -1 -21.0539 86.6573 TC -21.8000 81.7000 1 22 117
1971020S11094 1971 7 SI MM POLLY 1971-01-25 21:00:00 TS -22.3446 83.0635 997 bom main 2626 2626 P________PP___ SH101971 -22.3310 83.1360 -1 -21.5675 86.7868 TC -22.3718 82.9184 1 30 112
1971020S11094 1971 7 SI MM POLLY 1971-01-26 00:00:00 TS -22.9174 84.6831 998 bom main 2791 2754 O________PP___ jtwc_sh SH101971 -22.9000 84.8000 -1 -22.0583 86.9167 TC -22.9522 84.4494 1 31 112
1971020S11094 1971 7 SI MM POLLY 1971-01-26 03:00:00 TS -23.4830 86.1385 999 bom main 2754 2633 P________PP___ SH101971 -23.4727 86.2165 -1 -22.5216 87.0450 TC -23.5037 85.9823 1 26 115
1971020S11094 1971 7 SI MM POLLY 1971-01-26 06:00:00 TS -24.0000 87.2000 1000 bom main 2633 2597 O________PO___ jtwc_sh SH101971 -24.0000 87.2000 -1 -22.9527 87.1698 TC -24.0000 87.2000 1 15 125
1971020S11094 1971 7 SI MM POLLY 1971-01-26 09:00:00 TS -24.3523 87.5163 1000 bom main 2595 2591 P________PP___ SH101971 -24.4284 87.4669 -1 -23.3471 87.2888 TC -24.4294 87.6653 1 7 157
1971020S11094 1971 7 SI MM POLLY 1971-01-26 12:00:00 TS -24.6475 87.5074 1001 bom main 2591 2585 O________OP___ jtwc_sh SH101971 -24.8000 87.4000 -1 -23.7000 87.4000 TC 30 1000 -24.8162 87.7760 1 6 175
1971020S11094 1971 7 SI MM POLLY 1971-01-26 15:00:00 TS -24.9278 87.5489 1001 bom main 2585 2570 P________PP___ SH101971 -25.1575 87.4926 -1 -24.0063 87.5001 TC 30 1000 -25.1701 87.6981 1 6 171
1971020S11094 1971 7 SI MM POLLY 1971-01-26 18:00:00 TS -25.2000 87.6000 1002 bom main 2570 2555 O________OO___ jtwc_sh SH101971 -25.5000 87.6000 -1 -24.3000 87.6000 TC 30 1001 -25.5000 87.6000 1 6 165
1971020S11094 1971 7 SI MM POLLY 1971-01-26 21:00:00 TS -25.5460 87.7271 1003 bom main 2555 2530 P________PP___ SH101971 -25.8650 87.7425 -1 -24.6000 87.7001 TC 27 1001 -25.8540 87.7234 1 7 160
1971020S11094 1971 7 SI MM POLLY 1971-01-27 00:00:00 TS -25.8706 87.8656 1004 bom main 2530 2518 O________OP___ jtwc_sh SH101971 -26.2000 87.9000 -1 -24.9000 87.8000 TC 25 1002 -26.1823 87.8624 1 7 158
1971020S11094 1971 7 SI MM POLLY 1971-01-27 03:00:00 TS -26.1611 87.9976 1004 bom main 2516 2504 P________PP___ SH101971 -26.4875 88.0426 -1 -25.2000 87.8852 TC 22 1003 -26.4695 88.0202 1 6 154
1971020S11094 1971 7 SI MM POLLY 1971-01-27 06:00:00 TS -26.4000 88.1500 1004 bom main 2494 2482 O________OO___ jtwc_sh SH101971 -26.7000 88.2000 -1 -25.5000 88.0000 TC 20 1004 -26.7000 88.2000 1 5 144
1971020S11094 1971 7 SI MM POLLY 1971-01-27 09:00:00 TS -26.5785 88.3408 1004 bom main 2482 2462 P________PP___ SH101971 -26.8225 88.3851 -1 -25.8075 88.1850 TC 20 1004 -26.8616 88.4078 1 5 131
1971020S11094 1971 7 SI MM POLLY 1971-01-27 12:00:00 TS -26.7169 88.5589 1005 bom main 2452 2431 O________OP___ jtwc_sh SH101971 -26.9000 88.6000 -1 -26.1000 88.4000 TC 20 1004 -26.9676 88.6354 1 5 125
1971020S11094 1971 7 SI MM POLLY 1971-01-27 15:00:00 TS -26.8568 88.7870 1005 bom main 2430 2410 P________PP___ SH101971 -27.0000 88.8500 -1 -26.3874 88.5775 TC 20 1004 -27.0397 88.8703 1 5 122
1971020S11094 1971 7 SI MM POLLY 1971-01-27 18:00:00 TS -26.9750 89.0250 1006 bom main 2410 2389 O________OO___ jtwc_sh SH101971 -27.1000 89.1000 -1 -26.6000 88.8000 TC 20 1005 -27.1000 89.1000 1 5 118
1971020S11094 1971 7 SI MM POLLY 1971-01-27 21:00:00 TS -27.0769 89.2611 1006 bom main 2379 2360 P________PP___ SH101971 -27.2074 89.3075 -1 -26.7027 89.1425 TC 17 1005 -27.1899 89.2870 1 4 112
1971020S11094 1971 7 SI MM POLLY 1971-01-28 00:00:00 TS -27.1430 89.4925 1006 bom main 2360 2339 O________OP___ jtwc_sh SH101971 -27.3000 89.5000 -1 -26.7000 89.5000 TC 15 1006 -27.2719 89.4701 1 4 103
1971020S11094 1971 7 SI MM POLLY 1971-01-28 03:00:00 TS -27.1719 89.7065 1006 bom main 2339 2320 P________PP___ SH101971 -27.3574 89.6851 -1 -26.6300 89.7876 TC 15 1006 -27.3430 89.6682 1 4 101
1971020S11094 1971 7 SI MM POLLY 1971-01-28 06:00:00 TS -27.2200 89.9200 1006 bom main 2320 2289 O________OO___ jtwc_sh SH101971 -27.4000 89.9000 -1 -26.5000 90.0000 TC 15 1006 -27.4000 89.9000 1 4 107
1971020S11094 1971 7 SI WA POLLY 1971-01-28 09:00:00 TS -27.2997 90.1727 main 2289 2259 P________PP___ SH101971 -27.4575 90.1775 -1 -26.3525 90.1249 TC 15 1006 -27.4515 90.1808 1 5 110
1971020S11094 1971 7 SI WA POLLY 1971-01-28 12:00:00 TS -27.3961 90.4761 1006 bom main 2259 2230 O________OP___ jtwc_sh SH101971 -27.5000 90.5000 -1 -26.2000 90.2000 TC 15 1006 -27.4874 90.4973 1 6 110
1971020S11094 1971 7 SI WA POLLY 1971-01-28 15:00:00 TS -27.5115 90.8367 1006 bom main 2230 2190 P_________P___ SH101971 -27.5149 90.8350 -1 TC -27.5046 90.8401 1 7 99
1971020S11094 1971 7 SI WA POLLY 1971-01-28 18:00:00 TS -27.5000 91.2000 1006 bom main 2190 2151 O_________O___ jtwc_sh SH101971 -27.5000 91.2000 -1 -27.5000 91.2000 1 7 86
1971020S11094 1971 7 SI WA POLLY 1971-01-28 21:00:00 TS -27.4596 91.5965 1006 bom main 2151 2112 P_________P___ SH101971 -27.4575 91.6001 -1 -27.4638 91.5895 1 7 82
1971020S11094 1971 7 SI WA POLLY 1971-01-29 00:00:00 TS -27.4027 91.9961 1006 bom main 2112 2072 O_________P___ jtwc_sh SH101971 -27.4000 92.0000 -1 -27.4080 91.9882 1 7 81
1971020S11094 1971 7 SI WA POLLY 1971-01-29 03:00:00 TS -27.3444 92.3759 main 2072 2043 P_________P___ SH101971 -27.3425 92.3800 -1 -27.3482 92.3676 1 6 81
1971020S11094 1971 7 SI WA POLLY 1971-01-29 06:00:00 TS -27.3000 92.7000 main 2043 2023 O_________O___ jtwc_sh SH101971 -27.3000 92.7000 -1 -27.3000 92.7000 1 5 83
1971020S11094 1971 7 SI WA POLLY 1971-01-29 09:00:00 TS -27.2872 92.9290 main 2023 2003 P_________P___ SH101971 -27.2923 92.9224 -1 -27.2768 92.9421 1 4 88
1971020S11094 1971 7 SI WA POLLY 1971-01-29 12:00:00 TS -27.2897 93.1125 main 2003 1984 O_________P___ jtwc_sh SH101971 -27.3000 93.1000 -1 -27.2692 93.1374 1 3 90
1971020S11094 1971 7 SI WA POLLY 1971-01-29 15:00:00 TS -27.2873 93.3097 main 1984 1964 P_________P___ SH101971 -27.2925 93.3075 -1 -27.2769 93.3141 1 3 92
1971020S11094 1971 7 SI WA POLLY 1971-01-29 18:00:00 TS -27.3000 93.5000 main 1964 1954 O_________O___ jtwc_sh SH101971 -27.3000 93.5000 -1 -27.3000 93.5000 1 3 99
1971020S11094 1971 7 SI WA POLLY 1971-01-29 21:00:00 TS -27.3356 93.6421 main 1954 1934 P_________P___ SH101971 -27.3423 93.6275 -1 -27.3222 93.6712 1 3 107
1971020S11094 1971 7 SI WA POLLY 1971-01-30 00:00:00 TS -27.3868 93.8220 main 1934 1905 O_________P___ jtwc_sh SH101971 -27.4000 93.8000 -1 -27.3605 93.8660 1 4 104
1971020S11094 1971 7 SI WA POLLY 1971-01-30 03:00:00 TS -27.4343 94.0927 main 1905 1865 P_________P___ SH101971 -27.4421 94.0752 -1 -27.4186 94.1278 1 6 101
1971020S11094 1971 7 SI WA POLLY 1971-01-30 06:00:00 TS -27.5000 94.5000 main 1865 1816 O_________O___ jtwc_sh SH101971 -27.5000 94.5000 -1 -27.5000 94.5000 1 9 100
1971020S11094 1971 7 SI WA POLLY 1971-01-30 09:00:00 TS -27.5862 95.0818 main 1806 1747 P_________P___ SH101971 -27.5852 95.1051 -1 -27.5883 95.0353 1 11 100
1971020S11094 1971 7 SI WA POLLY 1971-01-30 12:00:00 TS -27.6997 95.7602 main 1737 1679 O_________P___ jtwc_sh SH101971 -27.7000 95.8000 -1 -27.6989 95.6807 1 12 102
1971020S11094 1971 7 SI WA POLLY 1971-01-30 15:00:00 TS -27.8348 96.4287 main 1679 1611 P_________P___ SH101971 -27.8347 96.4502 -1 -27.8349 96.3857 1 12 104
1971020S11094 1971 7 SI WA POLLY 1971-01-30 18:00:00 TS -28.0000 97.1000 main 1611 1553 O_________O___ jtwc_sh SH101971 -28.0000 97.1000 -1 -28.0000 97.1000 1 12 107
1971020S11094 1971 7 SI WA POLLY 1971-01-30 21:00:00 TS -28.1887 97.7614 main 1544 1487 P_________P___ SH101971 -28.1847 97.7503 -1 -28.1966 97.7836 1 12 109
1971020S11094 1971 7 SI WA POLLY 1971-01-31 00:00:00 TS -28.4061 98.4125 main 1487 1431 O_________P___ jtwc_sh SH101971 -28.4000 98.4000 -1 -28.4183 98.4374 1 12 112
1971020S11094 1971 7 SI WA POLLY 1971-01-31 03:00:00 TS -28.6474 99.0571 main 1422 1368 P_________P___ SH101971 -28.6431 99.0493 -1 -28.6558 99.0726 1 12 114
1971020S11094 1971 7 SI WA POLLY 1971-01-31 06:00:00 TS -28.9000 99.7000 main 1368 O_________O___ jtwc_sh SH101971 -28.9000 99.7000 -1 -28.9000 99.7000 6 12 114

IBTrACS Databaseについて

本データベースは、米国NOAAが公開する1842年以降の世界の熱帯低気圧のベストトラックデータアーカイブInternational Best Track Archive for Climate Stewardship (IBTrACS)を、ウェブで閲覧しやすい形式に変換したものです。

最終更新日:2021-10-25